createdAt,value
2022-09-15T00:00:06.165Z,95409.88
2022-09-15T00:00:37.804Z,95403.13
2022-09-15T00:01:10.979Z,95400.75
2022-09-15T00:01:42.900Z,95398.13
2022-09-15T00:02:14.768Z,95401.59
2022-09-15T00:02:46.813Z,95396.66
2022-09-15T00:03:19.348Z,95396.81
2022-09-15T00:03:51.550Z,95405.94
2022-09-15T00:04:23.273Z,95402.56
2022-09-15T00:04:54.970Z,95397.34
2022-09-15T00:05:26.840Z,95401.34
2022-09-15T00:05:58.700Z,95407.28
2022-09-15T00:06:30.373Z,95402.16
2022-09-15T00:07:02.233Z,95401.22
2022-09-15T00:07:34.315Z,95407.47
2022-09-15T00:08:06.115Z,95403.22
2022-09-15T00:08:39.111Z,95403.22
2022-09-15T00:09:10.861Z,95398.09
2022-09-15T00:09:42.564Z,95402.66
2022-09-15T00:10:14.424Z,95397.81
2022-09-15T00:10:58.419Z,95390.47
2022-09-15T00:11:33.035Z,95394.59
2022-09-15T00:12:04.917Z,95398.50
2022-09-15T00:12:37.517Z,95391.88
2022-09-15T00:13:09.279Z,95394.41
2022-09-15T00:13:41.373Z,95394.50
2022-09-15T00:14:13.250Z,95390.19
2022-09-15T00:14:44.951Z,95391.38
2022-09-15T00:15:17.653Z,95386.47
2022-09-15T00:15:50.029Z,95384.59
2022-09-15T00:16:25.011Z,95387.00
2022-09-15T00:16:56.970Z,95383.66
2022-09-15T00:17:28.740Z,95389.00
2022-09-15T00:18:00.740Z,95389.31
2022-09-15T00:18:32.630Z,95387.47
2022-09-15T00:19:06.655Z,95385.03
2022-09-15T00:19:38.575Z,95386.47
2022-09-15T00:20:10.892Z,95391.81
2022-09-15T00:20:44.084Z,95387.31
2022-09-15T00:21:20.692Z,95386.97
2022-09-15T00:21:52.522Z,95386.97
2022-09-15T00:22:25.385Z,95388.22
2022-09-15T00:22:57.035Z,95385.09
2022-09-15T00:23:28.741Z,95378.47
2022-09-15T00:24:01.791Z,95382.25
2022-09-15T00:24:33.570Z,95386.38
2022-09-15T00:25:06.121Z,95382.50
2022-09-15T00:25:49.158Z,95390.78
2022-09-15T00:26:24.804Z,95391.31
2022-09-15T00:26:56.833Z,95384.84
2022-09-15T00:27:28.599Z,95381.03
2022-09-15T00:28:00.335Z,95382.81
2022-09-15T00:28:32.443Z,95374.84
2022-09-15T00:29:04.248Z,95380.72
2022-09-15T00:29:36.408Z,95378.84
2022-09-15T00:30:08.727Z,95380.88
2022-09-15T00:30:43.164Z,95384.41
2022-09-15T00:31:17.456Z,95379.25
2022-09-15T00:31:49.255Z,95368.94
2022-09-15T00:32:20.965Z,95380.03
2022-09-15T00:32:52.679Z,95377.31
2022-09-15T00:33:24.528Z,95374.81
2022-09-15T00:33:59.391Z,95364.28
2022-09-15T00:34:31.117Z,95374.53
2022-09-15T00:35:02.883Z,95370.03
2022-09-15T00:35:40.433Z,95365.97
2022-09-15T00:36:12.514Z,95367.31
2022-09-15T00:36:44.587Z,95374.84
2022-09-15T00:37:16.405Z,95372.16
2022-09-15T00:37:48.065Z,95369.53
2022-09-15T00:38:20.443Z,95366.66
2022-09-15T00:38:52.396Z,95359.59
2022-09-15T00:39:24.078Z,95365.47
2022-09-15T00:39:55.816Z,95358.88
2022-09-15T00:40:27.743Z,95364.50
2022-09-15T00:41:00.556Z,95369.91
2022-09-15T00:41:32.454Z,95363.28
2022-09-15T00:42:04.487Z,95360.31
2022-09-15T00:42:36.419Z,95360.81
2022-09-15T00:43:10.022Z,95361.91
2022-09-15T00:43:44.855Z,95365.91
2022-09-15T00:44:16.552Z,95364.88
2022-09-15T00:44:58.034Z,95367.00
2022-09-15T00:45:29.940Z,95367.03
2022-09-15T00:46:01.734Z,95373.84
2022-09-15T00:46:35.019Z,95366.72
2022-09-15T00:47:19.135Z,95372.50
2022-09-15T00:47:52.354Z,95373.16
2022-09-15T00:48:24.077Z,95370.97
2022-09-15T00:49:11.032Z,95372.28
2022-09-15T00:49:44.422Z,95374.50
2022-09-15T00:50:20.332Z,95374.16
2022-09-15T00:50:57.353Z,95379.69
2022-09-15T00:51:42.987Z,95372.50
2022-09-15T00:52:20.760Z,95375.47
2022-09-15T00:52:58.289Z,95371.03
2022-09-15T00:53:32.052Z,95370.97
2022-09-15T00:54:09.418Z,95367.88
2022-09-15T00:54:59.623Z,95377.06
2022-09-15T00:55:35.887Z,95368.19
2022-09-15T00:56:10.403Z,95373.94
2022-09-15T00:56:44.180Z,95375.34
2022-09-15T00:57:24.580Z,95375.13
2022-09-15T00:58:01.573Z,95371.53
2022-09-15T00:58:38.470Z,95372.66
2022-09-15T00:59:17.065Z,95371.94
2022-09-15T01:00:24.275Z,95373.81
2022-09-15T01:01:01.288Z,95377.94
2022-09-15T01:01:33.679Z,95375.84
2022-09-15T01:02:15.597Z,95373.88
2022-09-15T01:02:48.735Z,95374.09
2022-09-15T01:03:20.609Z,95374.09
2022-09-15T01:03:52.630Z,95378.34
2022-09-15T01:04:24.532Z,95374.19
2022-09-15T01:04:58.872Z,95370.28
2022-09-15T01:05:44.796Z,95366.91
2022-09-15T01:06:38.045Z,95363.88
2022-09-15T01:07:14.889Z,95372.53
2022-09-15T01:07:56.166Z,95368.22
2022-09-15T01:08:38.296Z,95368.88
2022-09-15T01:09:24.289Z,95371.94
2022-09-15T01:10:05.268Z,95376.63
2022-09-15T01:10:40.250Z,95375.00
2022-09-15T01:11:12.044Z,95369.75
2022-09-15T01:12:16.690Z,95373.25
2022-09-15T01:12:48.664Z,95373.47
2022-09-15T01:13:20.439Z,95375.50
2022-09-15T01:13:52.194Z,95372.13
2022-09-15T01:14:24.031Z,95371.59
2022-09-15T01:14:55.744Z,95369.91
2022-09-15T01:15:36.806Z,95370.59
2022-09-15T01:16:17.559Z,95369.63
2022-09-15T01:17:17.261Z,95380.38
2022-09-15T01:17:59.354Z,95376.47
2022-09-15T01:18:33.708Z,95371.72
2022-09-15T01:19:47.509Z,95378.75
2022-09-15T01:20:44.268Z,95378.84
2022-09-15T01:21:28.122Z,95375.94
2022-09-15T01:22:15.140Z,95373.81
2022-09-15T01:22:59.846Z,95375.53
2022-09-15T01:24:05.404Z,95377.47
2022-09-15T01:24:42.538Z,95376.13
2022-09-15T01:25:42.363Z,95378.84
2022-09-15T01:26:45.919Z,95375.44
2022-09-15T01:27:44.955Z,95366.09
2022-09-15T01:28:36.347Z,95378.06
2022-09-15T01:29:23.719Z,95374.25
2022-09-15T01:30:05.779Z,95377.56
2022-09-15T01:30:41.053Z,95370.03
2022-09-15T01:31:35.663Z,95370.59
2022-09-15T01:32:40.332Z,95359.97
2022-09-15T01:33:29.223Z,95363.22
2022-09-15T01:34:14.084Z,95362.41
2022-09-15T01:34:55.235Z,95364.78
2022-09-15T01:35:38.857Z,95354.91
2022-09-15T01:36:42.872Z,95354.78
2022-09-15T01:37:21.100Z,95362.81
2022-09-15T01:37:59.281Z,95357.84
2022-09-15T01:38:42.043Z,95353.94
2022-09-15T01:39:18.603Z,95363.91
2022-09-15T01:39:53.179Z,95351.75
2022-09-15T01:40:29.201Z,95347.50
2022-09-15T01:41:16.545Z,95356.28
2022-09-15T01:41:56.917Z,95360.00
2022-09-15T01:42:31.049Z,95364.13
2022-09-15T01:43:05.199Z,95359.09
2022-09-15T01:43:48.881Z,95355.09
2022-09-15T01:44:28.307Z,95359.31
2022-09-15T01:45:29.218Z,95358.56
2022-09-15T01:46:03.167Z,95359.50
2022-09-15T01:46:42.908Z,95353.94
2022-09-15T01:47:17.881Z,95352.94
2022-09-15T01:47:54.040Z,95348.53
2022-09-15T01:48:27.614Z,95355.97
2022-09-15T01:49:02.036Z,95352.25
2022-09-15T01:49:44.671Z,95349.38
2022-09-15T01:50:22.692Z,95349.03
2022-09-15T01:51:00.094Z,95349.75
2022-09-15T01:51:33.574Z,95351.53
2022-09-15T01:52:05.937Z,95353.56
2022-09-15T01:52:43.182Z,95351.56
2022-09-15T01:53:19.063Z,95349.44
2022-09-15T01:53:54.459Z,95353.38
2022-09-15T01:54:33.946Z,95352.56
2022-09-15T01:55:13.934Z,95350.50
2022-09-15T01:55:52.323Z,95359.38
2022-09-15T01:56:24.030Z,95346.13
2022-09-15T01:56:56.630Z,95339.75
2022-09-15T01:57:28.586Z,95343.28
2022-09-15T01:58:00.310Z,95351.41
2022-09-15T01:58:33.310Z,95345.56
2022-09-15T01:59:05.904Z,95346.47
2022-09-15T01:59:37.626Z,95343.75
2022-09-15T02:00:10.056Z,95346.13
2022-09-15T02:00:47.289Z,95343.59
2022-09-15T02:01:28.155Z,95347.84
2022-09-15T02:02:05.677Z,95340.72
2022-09-15T02:03:00.549Z,95331.91
2022-09-15T02:03:44.753Z,95342.00
2022-09-15T02:04:29.643Z,95344.50
2022-09-15T02:05:01.428Z,95354.19
2022-09-15T02:05:40.917Z,95347.38
2022-09-15T02:06:27.499Z,95350.94
2022-09-15T02:07:15.374Z,95354.19
2022-09-15T02:08:08.843Z,95345.97
2022-09-15T02:08:49.832Z,95343.66
2022-09-15T02:09:30.651Z,95349.66
2022-09-15T02:10:11.445Z,95348.34
2022-09-15T02:10:53.563Z,95348.25
2022-09-15T02:11:28.977Z,95337.25
2022-09-15T02:12:06.756Z,95339.72
2022-09-15T02:13:03.882Z,95343.34
2022-09-15T02:13:59.816Z,95348.09
2022-09-15T02:14:56.644Z,95345.72
2022-09-15T02:15:33.441Z,95347.25
2022-09-15T02:16:13.933Z,95343.22
2022-09-15T02:16:50.116Z,95347.22
2022-09-15T02:17:24.253Z,95353.97
2022-09-15T02:17:59.068Z,95352.09
2022-09-15T02:18:45.309Z,95351.88
2022-09-15T02:19:31.578Z,95350.25
2022-09-15T02:20:25.649Z,95354.09
2022-09-15T02:21:10.305Z,95353.16
2022-09-15T02:22:17.582Z,95352.16
2022-09-15T02:22:57.244Z,95356.09
2022-09-15T02:23:35.311Z,95354.16
2022-09-15T02:24:18.631Z,95357.16
2022-09-15T02:24:57.730Z,95357.97
2022-09-15T02:25:35.660Z,95354.44
2022-09-15T02:26:17.510Z,95347.66
2022-09-15T02:26:51.850Z,95363.22
2022-09-15T02:27:27.984Z,95349.75
2022-09-15T02:28:05.551Z,95355.56
2022-09-15T02:28:40.335Z,95356.34
2022-09-15T02:29:14.100Z,95353.28
2022-09-15T02:29:47.744Z,95351.25
2022-09-15T02:30:20.798Z,95347.88
2022-09-15T02:30:55.985Z,95341.56
2022-09-15T02:31:29.349Z,95346.56
2022-09-15T02:32:06.857Z,95345.34
2022-09-15T02:32:54.399Z,95349.84
2022-09-15T02:33:31.671Z,95347.66
2022-09-15T02:34:10.838Z,95345.81
2022-09-15T02:34:46.743Z,95341.72
2022-09-15T02:35:18.888Z,95342.56
2022-09-15T02:35:52.220Z,95345.53
2022-09-15T02:36:26.533Z,95340.31
2022-09-15T02:36:59.057Z,95340.81
2022-09-15T02:37:30.917Z,95354.34
2022-09-15T02:38:05.682Z,95344.16
2022-09-15T02:38:43.985Z,95344.72
2022-09-15T02:39:20.154Z,95348.28
2022-09-15T02:39:57.433Z,95345.69
2022-09-15T02:40:30.356Z,95346.03
2022-09-15T02:41:02.859Z,95347.66
2022-09-15T02:41:36.565Z,95346.53
2022-09-15T02:42:09.142Z,95344.50
2022-09-15T02:42:42.459Z,95344.00
2022-09-15T02:43:17.422Z,95345.13
2022-09-15T02:43:50.099Z,95352.06
2022-09-15T02:44:22.572Z,95337.53
2022-09-15T02:44:54.470Z,95343.66
2022-09-15T02:45:26.870Z,95346.72
2022-09-15T02:45:58.682Z,95342.53
2022-09-15T02:46:30.678Z,95341.16
2022-09-15T02:47:02.508Z,95336.59
2022-09-15T02:47:34.296Z,95350.66
2022-09-15T02:48:06.320Z,95353.09
2022-09-15T02:48:37.990Z,95348.78
2022-09-15T02:49:09.854Z,95347.22
2022-09-15T02:49:58.703Z,95342.06
2022-09-15T02:50:52.774Z,95338.72
2022-09-15T02:51:43.148Z,95344.00
2022-09-15T02:52:21.560Z,95335.28
2022-09-15T02:53:00.404Z,95337.41
2022-09-15T02:54:32.734Z,95340.03
2022-09-15T02:55:14.608Z,95337.63
2022-09-15T02:55:56.066Z,95348.72
2022-09-15T02:56:43.455Z,95355.72
2022-09-15T02:57:15.712Z,95353.38
2022-09-15T02:57:50.527Z,95357.69
2022-09-15T02:58:25.800Z,95338.19
2022-09-15T02:58:58.229Z,95346.69
2022-09-15T02:59:52.701Z,95350.03
2022-09-15T03:00:38.736Z,95347.00
2022-09-15T03:01:16.480Z,95344.25
2022-09-15T03:01:49.062Z,95347.34
2022-09-15T03:02:21.595Z,95357.13
2022-09-15T03:02:57.628Z,95337.63
2022-09-15T03:03:30.639Z,95334.66
2022-09-15T03:04:05.767Z,95339.16
2022-09-15T03:04:40.618Z,95342.84
2022-09-15T03:05:33.645Z,95336.44
2022-09-15T03:06:18.016Z,95347.91
2022-09-15T03:06:50.223Z,95333.88
2022-09-15T03:07:28.603Z,95335.94
2022-09-15T03:08:03.400Z,95339.72
2022-09-15T03:08:38.135Z,95331.59
2022-09-15T03:09:16.886Z,95338.78
2022-09-15T03:10:13.830Z,95343.25
2022-09-15T03:10:49.027Z,95344.72
2022-09-15T03:11:29.543Z,95341.53
2022-09-15T03:12:02.187Z,95339.63
2022-09-15T03:12:42.165Z,95331.41
2022-09-15T03:13:20.264Z,95335.41
2022-09-15T03:14:03.442Z,95331.16
2022-09-15T03:14:38.499Z,95338.03
2022-09-15T03:15:18.341Z,95338.84
2022-09-15T03:15:50.386Z,95328.47
2022-09-15T03:16:25.732Z,95338.88
2022-09-15T03:17:03.469Z,95337.75
2022-09-15T03:17:47.586Z,95333.19
2022-09-15T03:18:40.374Z,95333.63
2022-09-15T03:19:20.502Z,95334.91
2022-09-15T03:19:52.612Z,95335.03
2022-09-15T03:20:30.410Z,95336.16
2022-09-15T03:21:02.629Z,95344.53
2022-09-15T03:21:35.800Z,95336.72
2022-09-15T03:22:09.405Z,95350.81
2022-09-15T03:22:41.305Z,95334.44
2022-09-15T03:23:13.629Z,95341.22
2022-09-15T03:24:21.675Z,95345.59
2022-09-15T03:24:53.575Z,95344.97
2022-09-15T03:25:26.912Z,95354.13
2022-09-15T03:26:02.119Z,95346.59
2022-09-15T03:26:33.966Z,95344.44
2022-09-15T03:27:07.991Z,95347.22
2022-09-15T03:27:40.165Z,95344.75
2022-09-15T03:28:14.472Z,95347.34
2022-09-15T03:28:46.310Z,95354.63
2022-09-15T03:29:26.401Z,95354.63
2022-09-15T03:30:13.417Z,95353.09
2022-09-15T03:30:56.353Z,95352.78
2022-09-15T03:31:31.099Z,95353.00
2022-09-15T03:32:08.139Z,95344.81
2022-09-15T03:32:40.861Z,95351.78
2022-09-15T03:33:17.727Z,95342.78
2022-09-15T03:33:54.456Z,95342.47
2022-09-15T03:34:34.276Z,95344.75
2022-09-15T03:35:07.461Z,95343.69
2022-09-15T03:35:48.505Z,95343.28
2022-09-15T03:36:23.419Z,95339.63
2022-09-15T03:37:01.028Z,95341.63
2022-09-15T03:37:43.205Z,95347.09
2022-09-15T03:38:17.500Z,95349.19
2022-09-15T03:39:13.921Z,95341.97
2022-09-15T03:39:56.283Z,95343.22
2022-09-15T03:40:38.083Z,95343.03
2022-09-15T03:41:20.837Z,95345.50
2022-09-15T03:42:04.454Z,95341.44
2022-09-15T03:42:39.114Z,95347.25
2022-09-15T03:43:18.623Z,95343.06
2022-09-15T03:43:50.735Z,95342.19
2022-09-15T03:44:23.438Z,95345.66
2022-09-15T03:44:55.287Z,95345.13
2022-09-15T03:45:32.575Z,95343.38
2022-09-15T03:46:06.687Z,95339.13
2022-09-15T03:46:38.732Z,95343.97
2022-09-15T03:47:10.824Z,95340.44
2022-09-15T03:47:42.889Z,95344.56
2022-09-15T03:48:15.199Z,95343.06
2022-09-15T03:48:49.372Z,95340.94
2022-09-15T03:49:21.318Z,95339.00
2022-09-15T03:49:53.204Z,95348.09
2022-09-15T03:50:25.220Z,95339.56
2022-09-15T03:50:58.290Z,95342.06
2022-09-15T03:51:30.785Z,95337.81
2022-09-15T03:52:03.042Z,95342.66
2022-09-15T03:52:35.104Z,95336.91
2022-09-15T03:53:08.172Z,95344.16
2022-09-15T03:53:42.039Z,95331.97
2022-09-15T03:54:16.917Z,95340.59
2022-09-15T03:54:49.170Z,95334.44
2022-09-15T03:55:21.166Z,95335.81
2022-09-15T03:55:53.083Z,95340.19
2022-09-15T03:56:31.295Z,95342.09
2022-09-15T03:57:03.381Z,95335.31
2022-09-15T03:57:35.281Z,95332.84
2022-09-15T03:58:07.952Z,95340.13
2022-09-15T03:58:41.384Z,95340.94
2022-09-15T03:59:29.133Z,95331.78
2022-09-15T04:00:07.620Z,95332.09
2022-09-15T04:00:43.987Z,95336.31
2022-09-15T04:01:19.259Z,95333.19
2022-09-15T04:01:57.232Z,95332.81
2022-09-15T04:02:29.791Z,95331.09
2022-09-15T04:03:08.273Z,95340.94
2022-09-15T04:03:47.594Z,95337.81
2022-09-15T04:04:24.395Z,95344.81
2022-09-15T04:04:56.290Z,95339.75
2022-09-15T04:05:28.164Z,95338.56
2022-09-15T04:05:59.999Z,95336.28
2022-09-15T04:06:31.849Z,95338.72
2022-09-15T04:07:03.804Z,95340.19
2022-09-15T04:07:41.217Z,95341.97
2022-09-15T04:08:13.311Z,95337.41
2022-09-15T04:08:45.403Z,95334.56
2022-09-15T04:09:17.469Z,95340.03
2022-09-15T04:09:49.335Z,95334.97
2022-09-15T04:10:24.406Z,95332.38
2022-09-15T04:10:56.495Z,95326.09
2022-09-15T04:11:31.209Z,95319.38
2022-09-15T04:12:04.001Z,95322.78
2022-09-15T04:12:36.393Z,95327.41
2022-09-15T04:13:08.833Z,95325.81
2022-09-15T04:13:42.487Z,95329.00
2022-09-15T04:14:14.491Z,95333.38
2022-09-15T04:14:46.661Z,95325.34
2022-09-15T04:15:20.754Z,95325.19
2022-09-15T04:16:03.971Z,95319.38
2022-09-15T04:16:36.493Z,95328.31
2022-09-15T04:17:10.612Z,95332.06
2022-09-15T04:17:42.592Z,95321.31
2022-09-15T04:18:14.464Z,95324.91
2022-09-15T04:18:46.811Z,95330.53
2022-09-15T04:19:21.414Z,95332.34
2022-09-15T04:19:53.438Z,95332.69
2022-09-15T04:20:25.777Z,95335.25
2022-09-15T04:21:03.332Z,95332.63
2022-09-15T04:21:35.314Z,95339.34
2022-09-15T04:22:07.954Z,95328.53
2022-09-15T04:22:39.821Z,95328.41
2022-09-15T04:23:14.120Z,95323.84
2022-09-15T04:24:35.776Z,95331.19
2022-09-15T04:25:11.141Z,95335.25
2022-09-15T04:25:43.039Z,95323.16
2022-09-15T04:26:22.925Z,95328.69
2022-09-15T04:26:54.923Z,95333.56
2022-09-15T04:27:26.877Z,95328.56
2022-09-15T04:27:58.849Z,95335.31
2022-09-15T04:28:35.499Z,95327.53
2022-09-15T04:29:13.036Z,95332.97
2022-09-15T04:29:44.986Z,95333.25
2022-09-15T04:30:16.788Z,95325.47
2022-09-15T04:30:48.641Z,95334.91
2022-09-15T04:31:20.489Z,95330.16
2022-09-15T04:31:53.232Z,95332.53
2022-09-15T04:32:25.175Z,95327.66
2022-09-15T04:32:56.945Z,95323.19
2022-09-15T04:33:28.623Z,95337.53
2022-09-15T04:34:00.442Z,95323.66
2022-09-15T04:34:32.175Z,95325.44
2022-09-15T04:35:04.986Z,95319.34
2022-09-15T04:35:36.639Z,95317.69
2022-09-15T04:36:12.095Z,95324.38
2022-09-15T04:36:44.063Z,95322.00
2022-09-15T04:37:16.089Z,95322.75
2022-09-15T04:37:48.130Z,95324.50
2022-09-15T04:38:20.031Z,95327.22
2022-09-15T04:38:52.636Z,95324.66
2022-09-15T04:39:25.570Z,95321.13
2022-09-15T04:39:57.570Z,95314.84
2022-09-15T04:40:29.812Z,95320.13
2022-09-15T04:41:02.457Z,95315.47
2022-09-15T04:41:34.449Z,95320.69
2022-09-15T04:42:06.961Z,95323.06
2022-09-15T04:42:38.707Z,95318.06
2022-09-15T04:43:10.956Z,95321.31
2022-09-15T04:43:46.143Z,95312.56
2022-09-15T04:44:18.264Z,95315.47
2022-09-15T04:44:50.034Z,95325.00
2022-09-15T04:45:21.766Z,95314.44
2022-09-15T04:45:54.436Z,95320.56
2022-09-15T04:46:26.247Z,95317.97
2022-09-15T04:46:58.508Z,95310.00
2022-09-15T04:47:30.249Z,95315.88
2022-09-15T04:48:02.185Z,95319.00
2022-09-15T04:48:33.923Z,95314.38
2022-09-15T04:49:05.718Z,95319.28
2022-09-15T04:49:37.488Z,95321.38
2022-09-15T04:50:09.759Z,95317.34
2022-09-15T04:51:07.742Z,95318.97
2022-09-15T04:51:39.439Z,95314.97
2022-09-15T04:52:11.561Z,95309.22
2022-09-15T04:52:43.287Z,95317.13
2022-09-15T04:53:15.178Z,95318.13
2022-09-15T04:53:47.336Z,95322.66
2022-09-15T04:54:19.532Z,95319.94
2022-09-15T04:54:51.227Z,95319.84
2022-09-15T04:55:22.980Z,95317.06
2022-09-15T04:56:02.453Z,95323.38
2022-09-15T04:56:34.247Z,95315.06
2022-09-15T04:57:06.070Z,95317.97
2022-09-15T04:57:37.760Z,95317.81
2022-09-15T04:58:09.805Z,95307.22
2022-09-15T04:58:44.522Z,95312.88
2022-09-15T04:59:18.214Z,95311.78
2022-09-15T04:59:49.889Z,95313.16
2022-09-15T05:00:21.738Z,95313.03
2022-09-15T05:00:53.466Z,95313.53
2022-09-15T05:01:27.927Z,95316.47
2022-09-15T05:02:00.054Z,95309.72
2022-09-15T05:02:33.379Z,95313.13
2022-09-15T05:03:05.110Z,95313.38
2022-09-15T05:03:37.756Z,95311.03
2022-09-15T05:04:10.200Z,95308.47
2022-09-15T05:04:41.923Z,95318.47
2022-09-15T05:05:13.732Z,95320.91
2022-09-15T05:05:47.744Z,95315.06
2022-09-15T05:06:24.095Z,95322.00
2022-09-15T05:06:55.912Z,95320.06
2022-09-15T05:07:27.753Z,95322.69
2022-09-15T05:08:00.902Z,95315.88
2022-09-15T05:08:32.776Z,95325.34
2022-09-15T05:09:10.342Z,95324.94
2022-09-15T05:09:42.400Z,95322.00
2022-09-15T05:10:14.917Z,95317.06
2022-09-15T05:10:46.995Z,95319.09
2022-09-15T05:11:19.594Z,95320.63
2022-09-15T05:11:51.606Z,95321.19
2022-09-15T05:12:23.406Z,95319.94
2022-09-15T05:12:55.441Z,95319.06
2022-09-15T05:13:27.747Z,95317.56
2022-09-15T05:14:00.208Z,95314.63
2022-09-15T05:14:32.170Z,95323.75
2022-09-15T05:15:04.431Z,95314.44
2022-09-15T05:15:36.152Z,95315.94
2022-09-15T05:16:15.473Z,95318.50
2022-09-15T05:16:47.285Z,95316.38
2022-09-15T05:17:19.071Z,95312.50
2022-09-15T05:17:51.242Z,95311.56
2022-09-15T05:18:22.974Z,95310.88
2022-09-15T05:18:56.780Z,95314.13
2022-09-15T05:19:28.487Z,95317.56
2022-09-15T05:20:00.614Z,95322.69
2022-09-15T05:20:32.300Z,95321.19
2022-09-15T05:21:05.709Z,95317.56
2022-09-15T05:21:37.610Z,95324.06
2022-09-15T05:22:09.371Z,95325.41
2022-09-15T05:22:41.979Z,95317.94
2022-09-15T05:23:14.010Z,95312.56
2022-09-15T05:23:46.561Z,95317.66
2022-09-15T05:24:18.283Z,95318.59
2022-09-15T05:24:50.105Z,95322.66
2022-09-15T05:25:21.935Z,95314.66
2022-09-15T05:26:01.279Z,95319.38
2022-09-15T05:26:33.071Z,95317.50
2022-09-15T05:27:05.017Z,95318.88
2022-09-15T05:27:36.711Z,95323.16
2022-09-15T05:28:08.475Z,95320.44
2022-09-15T05:28:40.753Z,95318.34
2022-09-15T05:29:13.713Z,95321.25
2022-09-15T05:29:45.733Z,95319.81
2022-09-15T05:30:36.864Z,95326.16
2022-09-15T05:31:12.076Z,95326.69
2022-09-15T05:31:44.066Z,95333.25
2022-09-15T05:32:16.299Z,95328.28
2022-09-15T05:32:48.123Z,95332.31
2022-09-15T05:33:20.894Z,95324.28
2022-09-15T05:33:53.400Z,95328.44
2022-09-15T05:34:25.140Z,95323.59
2022-09-15T05:34:56.900Z,95327.16
2022-09-15T05:35:28.594Z,95322.88
2022-09-15T05:36:00.859Z,95322.81
2022-09-15T05:36:33.653Z,95328.53
2022-09-15T05:37:05.689Z,95327.66
2022-09-15T05:37:37.410Z,95331.34
2022-09-15T05:38:09.211Z,95332.13
2022-09-15T05:38:41.411Z,95331.22
2022-09-15T05:39:13.170Z,95331.34
2022-09-15T05:39:44.976Z,95332.28
2022-09-15T05:40:17.226Z,95328.03
2022-09-15T05:40:49.707Z,95329.69
2022-09-15T05:41:21.438Z,95330.94
2022-09-15T05:41:53.209Z,95327.13
2022-09-15T05:42:25.398Z,95336.41
2022-09-15T05:42:57.585Z,95328.31
2022-09-15T05:43:31.199Z,95330.41
2022-09-15T05:44:03.101Z,95330.88
2022-09-15T05:44:35.170Z,95330.53
2022-09-15T05:45:07.719Z,95329.56
2022-09-15T05:45:42.199Z,95324.47
2022-09-15T05:46:15.403Z,95325.94
2022-09-15T05:46:48.596Z,95327.97
2022-09-15T05:47:20.401Z,95338.72
2022-09-15T05:47:52.129Z,95324.28
2022-09-15T05:48:24.564Z,95323.47
2022-09-15T05:48:58.301Z,95324.34
2022-09-15T05:49:30.346Z,95318.72
2022-09-15T05:50:02.101Z,95312.03
2022-09-15T05:50:33.915Z,95322.25
2022-09-15T05:51:06.323Z,95333.09
2022-09-15T05:51:38.031Z,95331.00
2022-09-15T05:52:09.775Z,95338.22
2022-09-15T05:52:41.584Z,95328.69
2022-09-15T05:53:13.331Z,95333.94
2022-09-15T05:53:45.095Z,95329.81
2022-09-15T05:54:17.012Z,95330.06
2022-09-15T05:54:48.762Z,95331.72
2022-09-15T05:55:20.496Z,95337.75
2022-09-15T05:55:59.975Z,95339.06
2022-09-15T05:56:31.651Z,95336.28
2022-09-15T05:57:03.405Z,95326.78
2022-09-15T05:57:35.244Z,95330.88
2022-09-15T05:58:07.006Z,95339.41
2022-09-15T05:58:40.709Z,95331.31
2022-09-15T05:59:12.618Z,95332.69
2022-09-15T05:59:44.389Z,95332.41
2022-09-15T06:00:16.390Z,95340.50
2022-09-15T06:00:48.243Z,95332.41
2022-09-15T06:01:21.382Z,95334.19
2022-09-15T06:01:53.221Z,95331.31
2022-09-15T06:02:25.148Z,95333.25
2022-09-15T06:02:57.135Z,95326.56
2022-09-15T06:03:31.109Z,95326.72
2022-09-15T06:04:02.981Z,95333.25
2022-09-15T06:04:34.790Z,95325.47
2022-09-15T06:05:07.119Z,95329.28
2022-09-15T06:05:38.849Z,95333.09
2022-09-15T06:06:12.115Z,95332.59
2022-09-15T06:06:44.075Z,95331.00
2022-09-15T06:07:16.569Z,95340.03
2022-09-15T06:07:48.343Z,95328.50
2022-09-15T06:08:20.143Z,95331.56
2022-09-15T06:08:58.108Z,95326.84
2022-09-15T06:09:30.447Z,95329.56
2022-09-15T06:10:03.927Z,95331.16
2022-09-15T06:10:35.659Z,95330.91
2022-09-15T06:11:12.553Z,95327.38
2022-09-15T06:11:44.266Z,95329.94
2022-09-15T06:12:17.922Z,95335.59
2022-09-15T06:12:49.713Z,95325.50
2022-09-15T06:13:21.461Z,95317.63
2022-09-15T06:13:53.423Z,95330.66
2022-09-15T06:14:25.290Z,95327.19
2022-09-15T06:14:57.028Z,95327.06
2022-09-15T06:15:28.750Z,95331.16
2022-09-15T06:16:06.486Z,95325.81
2022-09-15T06:16:39.051Z,95328.31
2022-09-15T06:17:10.832Z,95327.69
2022-09-15T06:17:42.574Z,95334.31
2022-09-15T06:18:14.347Z,95335.94
2022-09-15T06:18:47.544Z,95330.28
2022-09-15T06:19:19.441Z,95327.06
2022-09-15T06:19:53.331Z,95338.00
2022-09-15T06:20:25.889Z,95337.94
2022-09-15T06:20:58.535Z,95329.69
2022-09-15T06:21:33.238Z,95340.22
2022-09-15T06:22:07.738Z,95336.41
2022-09-15T06:22:44.001Z,95333.78
2022-09-15T06:23:18.386Z,95324.81
2022-09-15T06:23:59.815Z,95328.66
2022-09-15T06:24:31.744Z,95334.75
2022-09-15T06:25:15.738Z,95330.78
2022-09-15T06:26:16.238Z,95327.78
2022-09-15T06:26:48.384Z,95326.16
2022-09-15T06:27:20.662Z,95346.94
2022-09-15T06:27:52.392Z,95338.19
2022-09-15T06:28:24.973Z,95338.19
2022-09-15T06:29:02.067Z,95336.50
2022-09-15T06:29:33.925Z,95331.00
2022-09-15T06:30:06.927Z,95330.16
2022-09-15T06:30:40.231Z,95334.72
2022-09-15T06:31:13.787Z,95336.50
2022-09-15T06:31:45.510Z,95339.44
2022-09-15T06:32:17.596Z,95339.47
2022-09-15T06:32:49.482Z,95344.56
2022-09-15T06:33:21.226Z,95344.16
2022-09-15T06:33:55.409Z,95344.38
2022-09-15T06:34:27.111Z,95340.91
2022-09-15T06:34:59.781Z,95347.75
2022-09-15T06:35:32.042Z,95347.22
2022-09-15T06:36:04.119Z,95339.03
2022-09-15T06:36:37.627Z,95337.91
2022-09-15T06:37:09.383Z,95342.94
2022-09-15T06:37:41.250Z,95342.28
2022-09-15T06:38:13.034Z,95340.88
2022-09-15T06:38:45.460Z,95336.69
2022-09-15T06:39:17.115Z,95336.97
2022-09-15T06:39:48.865Z,95341.19
2022-09-15T06:40:20.600Z,95342.50
2022-09-15T06:40:56.425Z,95338.22
2022-09-15T06:41:52.528Z,95340.94
2022-09-15T06:42:22.959Z,95345.25
2022-09-15T06:42:55.962Z,95341.00
2022-09-15T06:43:27.682Z,95344.47
2022-09-15T06:43:59.647Z,95345.47
2022-09-15T06:44:31.425Z,95348.03
2022-09-15T06:45:04.399Z,95343.81
2022-09-15T06:45:36.500Z,95342.81
2022-09-15T06:46:17.206Z,95343.09
2022-09-15T06:46:49.364Z,95341.13
2022-09-15T06:47:21.158Z,95344.00
2022-09-15T06:48:13.455Z,95351.44
2022-09-15T06:48:48.147Z,95350.31
2022-09-15T06:49:21.694Z,95347.72
2022-09-15T06:49:54.845Z,95353.97
2022-09-15T06:50:26.651Z,95351.00
2022-09-15T06:50:58.797Z,95353.91
2022-09-15T06:51:35.311Z,95352.97
2022-09-15T06:52:06.970Z,95351.94
2022-09-15T06:52:38.767Z,95357.72
2022-09-15T06:53:11.239Z,95360.59
2022-09-15T06:53:43.767Z,95350.72
2022-09-15T06:54:16.126Z,95357.25
2022-09-15T06:54:48.137Z,95352.13
2022-09-15T06:55:20.396Z,95355.31
2022-09-15T06:55:52.249Z,95357.94
2022-09-15T06:56:24.170Z,95362.09
2022-09-15T06:56:57.008Z,95355.31
2022-09-15T06:57:28.928Z,95363.44
2022-09-15T06:58:00.644Z,95364.81
2022-09-15T06:58:35.074Z,95368.94
2022-09-15T06:59:07.314Z,95365.91
2022-09-15T06:59:39.275Z,95366.28